createdAt,value
2018-10-01T00:00:39.002Z,95042.9
2018-10-01T00:01:41.440Z,95044.3
2018-10-01T00:02:43.901Z,95044.5
2018-10-01T00:03:46.056Z,95044.2
2018-10-01T00:04:48.203Z,95045.4
2018-10-01T00:05:50.644Z,95050.4
2018-10-01T00:06:52.544Z,95050.2
2018-10-01T00:07:54.987Z,95048.1
2018-10-01T00:08:57.412Z,95053.5
2018-10-01T00:09:59.561Z,95051.7
2018-10-01T00:11:01.721Z,95046.1
2018-10-01T00:12:03.886Z,95046.1
2018-10-01T00:13:06.326Z,95045.8
2018-10-01T00:14:08.777Z,95042
2018-10-01T00:15:10.936Z,95045.3
2018-10-01T00:16:13.379Z,95038.3
2018-10-01T00:17:15.801Z,95038.8
2018-10-01T00:18:17.989Z,95041.7
2018-10-01T00:19:20.124Z,95042.8
2018-10-01T00:20:22.273Z,95045.7
2018-10-01T00:21:24.714Z,95054.5
2018-10-01T00:22:27.145Z,95056.5
2018-10-01T00:23:29.592Z,95056.8
2018-10-01T00:24:32.029Z,95054
2018-10-01T00:25:34.460Z,95058.9
2018-10-01T00:26:36.885Z,95056
2018-10-01T00:27:39.325Z,95058.9
2018-10-01T00:28:41.748Z,95061.4
2018-10-01T00:29:44.173Z,95064.3
2018-10-01T00:30:46.306Z,95060.4
2018-10-01T00:31:48.738Z,95065.6
2018-10-01T00:32:51.169Z,95066
2018-10-01T00:33:53.599Z,95072.4
2018-10-01T00:34:55.737Z,95064.7
2018-10-01T00:35:58.175Z,95067.8
2018-10-01T00:37:00.611Z,95071.6
2018-10-01T00:38:02.772Z,95073.8
2018-10-01T00:39:04.938Z,95073.2
2018-10-01T00:40:07.370Z,95073.6
2018-10-01T00:41:09.817Z,95069.1
2018-10-01T00:42:11.976Z,95075.4
2018-10-01T00:43:14.431Z,95077.6
2018-10-01T00:44:16.864Z,95072.4
2018-10-01T00:45:19.295Z,95076.9
2018-10-01T00:46:21.723Z,95074
2018-10-01T00:47:23.894Z,95073.5
2018-10-01T00:48:25.758Z,95072.8
2018-10-01T00:49:28.205Z,95074.8
2018-10-01T00:50:30.358Z,95075.1
2018-10-01T00:51:32.500Z,95071.4
2018-10-01T00:52:34.936Z,95073.7
2018-10-01T00:53:37.365Z,95072
2018-10-01T00:54:39.797Z,95070.7
2018-10-01T00:55:42.220Z,95072.1
2018-10-01T00:56:44.666Z,95074.9
2018-10-01T00:57:46.812Z,95070.8
2018-10-01T00:58:49.249Z,95073.5
2018-10-01T00:59:51.669Z,95074.1
2018-10-01T01:00:53.822Z,95073.8
2018-10-01T01:01:55.976Z,95073.6
2018-10-01T01:02:58.408Z,95070.1
2018-10-01T01:04:00.836Z,95069.5
2018-10-01T01:05:03.265Z,95066.5
2018-10-01T01:06:05.705Z,95069.5
2018-10-01T01:07:08.132Z,95066.9
2018-10-01T01:08:10.568Z,95065.4
2018-10-01T01:09:12.740Z,95061.9
2018-10-01T01:10:15.170Z,95063.7
2018-10-01T01:11:17.333Z,95060.2
2018-10-01T01:12:19.759Z,95059.8
2018-10-01T01:13:22.188Z,95059.2
2018-10-01T01:14:24.614Z,95059.8
2018-10-01T01:15:27.108Z,95054.8
2018-10-01T01:16:29.536Z,95056.2
2018-10-01T01:17:31.962Z,95058
2018-10-01T01:18:34.396Z,95052.8
2018-10-01T01:19:36.837Z,95052.8
2018-10-01T01:20:39.267Z,95050.9
2018-10-01T01:21:41.437Z,95052.7
2018-10-01T01:22:43.875Z,95052.7
2018-10-01T01:23:46.308Z,95051.7
2018-10-01T01:24:48.742Z,95055.3
2018-10-01T01:25:51.167Z,95055.3
2018-10-01T01:26:53.324Z,95056.3
2018-10-01T01:27:55.488Z,95058.8
2018-10-01T01:28:57.664Z,95056.1
2018-10-01T01:29:59.825Z,95056.1
2018-10-01T01:31:02.270Z,95055.3
2018-10-01T01:32:04.694Z,95056.2
2018-10-01T01:33:07.122Z,95052.7
2018-10-01T01:34:09.580Z,95054.9
2018-10-01T01:35:12.007Z,95053.2
2018-10-01T01:36:14.439Z,95054
2018-10-01T01:37:16.595Z,95051.9
2018-10-01T01:38:18.754Z,95051.3
2018-10-01T01:39:20.916Z,95050.1
2018-10-01T01:40:23.340Z,95048.1
2018-10-01T01:41:25.773Z,95050.5
2018-10-01T01:42:28.214Z,95048.1
2018-10-01T01:43:30.659Z,95046.8
2018-10-01T01:44:33.084Z,95051.8
2018-10-01T01:45:35.225Z,95047.8
2018-10-01T01:46:37.376Z,95051.9
2018-10-01T01:47:39.808Z,95046.5
2018-10-01T01:48:41.945Z,95046.8
2018-10-01T01:49:44.375Z,95047
2018-10-01T01:50:46.807Z,95046.9
2018-10-01T01:51:48.968Z,95044.5
2018-10-01T01:52:51.113Z,95044.9
2018-10-01T01:53:53.266Z,95043.3
2018-10-01T01:54:55.708Z,95041
2018-10-01T01:55:58.141Z,95047.2
2018-10-01T01:57:00.293Z,95048.3
2018-10-01T01:58:02.722Z,95052
2018-10-01T01:59:05.167Z,95049.2
2018-10-01T02:00:07.592Z,95049.5
2018-10-01T02:01:10.033Z,95051
2018-10-01T02:02:12.195Z,95048.4
2018-10-01T02:03:14.349Z,95049.4
2018-10-01T02:04:16.772Z,95046.6
2018-10-01T02:05:19.198Z,95045
2018-10-01T02:06:21.627Z,95045.3
2018-10-01T02:07:23.791Z,95046.2
2018-10-01T02:08:26.230Z,95040.1
2018-10-01T02:09:28.380Z,95043
2018-10-01T02:10:30.536Z,95040.1
2018-10-01T02:11:32.969Z,95041.7
2018-10-01T02:12:35.405Z,95041.8
2018-10-01T02:13:37.578Z,95043.5
2018-10-01T02:14:40.005Z,95042.5
2018-10-01T02:15:42.160Z,95037.7
2018-10-01T02:16:44.590Z,95039.3
2018-10-01T02:17:47.023Z,95037.3
2018-10-01T02:18:49.450Z,95035.2
2018-10-01T02:19:51.594Z,95035.9
2018-10-01T02:20:53.747Z,95035.3
2018-10-01T02:21:56.166Z,95033.4
2018-10-01T02:22:58.335Z,95030.4
2018-10-01T02:24:00.755Z,95033.9
2018-10-01T02:25:03.198Z,95032.1
2018-10-01T02:26:05.340Z,95029.1
2018-10-01T02:27:07.772Z,95027.6
2018-10-01T02:28:09.657Z,95029.4
2018-10-01T02:29:11.803Z,95026.5
2018-10-01T02:30:14.248Z,95029.1
2018-10-01T02:31:16.674Z,95024.5
2018-10-01T02:32:19.126Z,95027
2018-10-01T02:33:21.296Z,95026
2018-10-01T02:34:23.743Z,95029.9
2018-10-01T02:35:25.912Z,95027.2
2018-10-01T02:36:28.420Z,95022
2018-10-01T02:37:30.856Z,95022.2
2018-10-01T02:38:33.098Z,95021.8
2018-10-01T02:39:35.295Z,95023
2018-10-01T02:40:37.457Z,95022.4
2018-10-01T02:41:39.885Z,95023
2018-10-01T02:42:42.314Z,95014.4
2018-10-01T02:43:44.740Z,95015.5
2018-10-01T02:44:46.901Z,95015.7
2018-10-01T02:45:49.337Z,95011.8
2018-10-01T02:46:51.767Z,95011.4
2018-10-01T02:47:54.131Z,95009.4
2018-10-01T02:48:56.537Z,95006.7
2018-10-01T02:49:58.701Z,95006.6
2018-10-01T02:51:01.142Z,95008
2018-10-01T02:52:03.567Z,95002.4
2018-10-01T02:53:05.743Z,95002.9
2018-10-01T02:54:08.177Z,95006.5
2018-10-01T02:55:10.617Z,95001.9
2018-10-01T02:56:13.055Z,95009.3
2018-10-01T02:57:14.920Z,95003.5
2018-10-01T02:58:17.051Z,95007.6
2018-10-01T02:59:19.518Z,95003.8
2018-10-01T03:00:21.967Z,95005.2
2018-10-01T03:01:24.466Z,95002.8
2018-10-01T03:02:26.305Z,95001.5
2018-10-01T03:03:28.188Z,95004.1
2018-10-01T03:04:30.617Z,95001.3
2018-10-01T03:05:33.050Z,94998.2
2018-10-01T03:06:35.223Z,94995
2018-10-01T03:07:37.659Z,94997
2018-10-01T03:08:40.084Z,94994.9
2018-10-01T03:09:42.264Z,94991.8
2018-10-01T03:10:44.702Z,94992.4
2018-10-01T03:11:46.869Z,94987.5
2018-10-01T03:12:49.308Z,94986.7
2018-10-01T03:13:51.454Z,94989.3
2018-10-01T03:14:53.874Z,94988.6
2018-10-01T03:15:56.040Z,94984.7
2018-10-01T03:16:58.472Z,94984.1
2018-10-01T03:18:00.627Z,94986.2
2018-10-01T03:19:02.765Z,94985.5
2018-10-01T03:20:04.930Z,94983.5
2018-10-01T03:21:07.507Z,94983.6
2018-10-01T03:22:09.976Z,94981
2018-10-01T03:23:12.405Z,94983
2018-10-01T03:24:14.845Z,94984.9
2018-10-01T03:25:17.280Z,94981.6
2018-10-01T03:26:19.726Z,94982.7
2018-10-01T03:27:22.155Z,94977
2018-10-01T03:28:24.586Z,94981.1
2018-10-01T03:29:27.017Z,94978.6
2018-10-01T03:30:29.451Z,94976.3
2018-10-01T03:31:31.875Z,94977.8
2018-10-01T03:32:34.048Z,94977.6
2018-10-01T03:33:36.475Z,94973.2
2018-10-01T03:34:38.896Z,94979.5
2018-10-01T03:35:41.316Z,94976.2
2018-10-01T03:36:43.746Z,94975.2
2018-10-01T03:37:45.905Z,94974.6
2018-10-01T03:38:48.086Z,94974.5
2018-10-01T03:39:49.956Z,94977.9
2018-10-01T03:40:52.126Z,94975
2018-10-01T03:41:54.542Z,94976.3
2018-10-01T03:42:56.970Z,94980.4
2018-10-01T03:43:59.408Z,94974.5
2018-10-01T03:45:01.836Z,94975.2
2018-10-01T03:46:03.987Z,94973.7
2018-10-01T03:47:06.415Z,94972.2
2018-10-01T03:48:08.584Z,94975.6
2018-10-01T03:49:11.008Z,94976.4
2018-10-01T03:50:13.442Z,94977
2018-10-01T03:51:15.866Z,94971.7
2018-10-01T03:52:18.107Z,94974.9
2018-10-01T03:53:20.601Z,94977.4
2018-10-01T03:54:23.082Z,94971
2018-10-01T03:55:24.981Z,94972.7
2018-10-01T03:56:27.423Z,94971.2
2018-10-01T03:57:29.863Z,94973.9
2018-10-01T03:58:32.076Z,94973.4
2018-10-01T03:59:34.507Z,94973.6
2018-10-01T04:00:36.970Z,94969.6
2018-10-01T04:01:39.406Z,94974.5
2018-10-01T04:02:41.842Z,94973.4
2018-10-01T04:03:44.283Z,94971.5
2018-10-01T04:04:46.742Z,94971.7
2018-10-01T04:05:49.170Z,94968.6
2018-10-01T04:06:51.597Z,94965.9
2018-10-01T04:07:53.755Z,94968.7
2018-10-01T04:08:57.016Z,94965.1
2018-10-01T04:09:59.727Z,94964.8
2018-10-01T04:11:02.150Z,94964.9
2018-10-01T04:12:04.575Z,94969.6
2018-10-01T04:13:07.014Z,94971.4
2018-10-01T04:14:08.647Z,94971.6
2018-10-01T04:15:11.075Z,94969.7
2018-10-01T04:16:13.222Z,94970.9
2018-10-01T04:17:15.648Z,94968.7
2018-10-01T04:18:17.519Z,94973.2
2018-10-01T04:19:19.958Z,94973.8
2018-10-01T04:20:22.109Z,94974.2
2018-10-01T04:21:24.255Z,94974.7
2018-10-01T04:22:26.407Z,94971.6
2018-10-01T04:23:28.851Z,94977.2
2018-10-01T04:24:31.279Z,94976.3
2018-10-01T04:25:33.715Z,94972.7
2018-10-01T04:26:36.129Z,94972.9
2018-10-01T04:27:38.288Z,94971.2
2018-10-01T04:28:40.457Z,94975.6
2018-10-01T04:29:42.909Z,94975.6
2018-10-01T04:30:45.082Z,94972.6
2018-10-01T04:31:47.517Z,94970.8
2018-10-01T04:32:49.949Z,94977.2
2018-10-01T04:33:52.372Z,94975.4
2018-10-01T04:34:54.541Z,94976.3
2018-10-01T04:35:56.976Z,94975
2018-10-01T04:36:59.405Z,94973.7
2018-10-01T04:38:01.836Z,94977.1
2018-10-01T04:39:03.990Z,94979.8
2018-10-01T04:40:06.145Z,94976.5
2018-10-01T04:41:08.314Z,94973.3
2018-10-01T04:42:09.684Z,94974.5
2018-10-01T04:43:12.130Z,94977.1
2018-10-01T04:44:14.560Z,94976.1
2018-10-01T04:45:17.009Z,94972.1
2018-10-01T04:46:19.439Z,94974.4
2018-10-01T04:47:21.869Z,94978
2018-10-01T04:48:24.055Z,94983.3
2018-10-01T04:49:26.219Z,94979.2
2018-10-01T04:50:28.645Z,94979.8
2018-10-01T04:51:31.077Z,94979.4
2018-10-01T04:52:33.507Z,94979.3
2018-10-01T04:53:35.660Z,94977.5
2018-10-01T04:54:38.084Z,94976.7
2018-10-01T04:55:40.233Z,94978.8
2018-10-01T04:56:42.411Z,94977.9
2018-10-01T04:57:44.626Z,94981.3
2018-10-01T04:58:47.151Z,94980.5
2018-10-01T04:59:49.624Z,94979.4
2018-10-01T05:00:52.050Z,94975.6
2018-10-01T05:01:54.475Z,94982.7
2018-10-01T05:02:56.923Z,94979.1
2018-10-01T05:03:59.070Z,94981.3
2018-10-01T05:05:01.495Z,94980.1
2018-10-01T05:06:04.054Z,94980.6
2018-10-01T05:07:06.620Z,94980.6
2018-10-01T05:08:09.056Z,94981.8
2018-10-01T05:09:11.225Z,94982.5
2018-10-01T05:10:13.677Z,94978.3
2018-10-01T05:11:16.107Z,94983.7
2018-10-01T05:12:18.541Z,94979.3
2018-10-01T05:13:20.427Z,94982.8
2018-10-01T05:14:22.858Z,94984.5
2018-10-01T05:15:25.019Z,94986.8
2018-10-01T05:16:27.461Z,94988.6
2018-10-01T05:17:29.900Z,94988.1
2018-10-01T05:18:32.899Z,94988.7
2018-10-01T05:19:35.444Z,94992.9
2018-10-01T05:20:37.876Z,94989.8
2018-10-01T05:21:40.349Z,94990.9
2018-10-01T05:22:42.789Z,94989.1
2018-10-01T05:23:45.331Z,94987.6
2018-10-01T05:24:47.768Z,94986.1
2018-10-01T05:25:50.212Z,94987.2
2018-10-01T05:26:52.663Z,94984.3
2018-10-01T05:27:54.827Z,94988.6
2018-10-01T05:28:57.008Z,94986
2018-10-01T05:29:59.450Z,94984.2
2018-10-01T05:31:01.617Z,94985.3
2018-10-01T05:32:04.057Z,94986.9
2018-10-01T05:33:06.237Z,94985.9
2018-10-01T05:34:08.686Z,94988
2018-10-01T05:35:11.119Z,94986.2
2018-10-01T05:36:13.555Z,94984.6
2018-10-01T05:37:16.009Z,94988.9
2018-10-01T05:38:18.465Z,94986.1
2018-10-01T05:39:20.668Z,94984
2018-10-01T05:40:23.118Z,94986.2
2018-10-01T05:41:25.019Z,94989.6
2018-10-01T05:42:27.482Z,94986.5
2018-10-01T05:43:29.369Z,94992.4
2018-10-01T05:44:31.567Z,94986.3
2018-10-01T05:45:34.028Z,94993.4
2018-10-01T05:46:36.211Z,94992.7
2018-10-01T05:47:38.685Z,94992.1
2018-10-01T05:48:40.887Z,94998.5
2018-10-01T05:49:43.056Z,95001.3
2018-10-01T05:50:45.270Z,94998.7
2018-10-01T05:51:47.727Z,95000.9
2018-10-01T05:52:50.191Z,94997.4
2018-10-01T05:53:51.815Z,95004
2018-10-01T05:54:54.261Z,95002.6
2018-10-01T05:55:56.735Z,95005.8
2018-10-01T05:56:58.613Z,95003.8
2018-10-01T05:58:00.934Z,95007
2018-10-01T05:59:03.433Z,95012.1
2018-10-01T06:00:05.865Z,95013.7
2018-10-01T06:01:08.286Z,95014.1
2018-10-01T06:02:10.727Z,95012.8
2018-10-01T06:03:12.606Z,95019.5
2018-10-01T06:04:15.047Z,95021.2
2018-10-01T06:05:17.495Z,95022
2018-10-01T06:06:19.669Z,95021.3
2018-10-01T06:07:22.106Z,95026.2
2018-10-01T06:08:24.265Z,95025
2018-10-01T06:09:26.168Z,95031.7
2018-10-01T06:10:28.352Z,95031.3
2018-10-01T06:11:30.775Z,95039.7
2018-10-01T06:12:32.935Z,95034.8
2018-10-01T06:13:35.377Z,95039.3
2018-10-01T06:14:37.293Z,95040
2018-10-01T06:15:39.736Z,95036.3
2018-10-01T06:16:42.172Z,95042.1
2018-10-01T06:17:44.610Z,95043.3
2018-10-01T06:18:46.862Z,95038.8
2018-10-01T06:19:49.334Z,95047.4
2018-10-01T06:20:51.757Z,95044.7
2018-10-01T06:21:54.195Z,95051
2018-10-01T06:22:56.356Z,95054.7
2018-10-01T06:23:58.784Z,95057.3
2018-10-01T06:25:01.062Z,95055.3
2018-10-01T06:26:03.566Z,95058.1
2018-10-01T06:27:05.743Z,95063.3
2018-10-01T06:28:08.187Z,95065
2018-10-01T06:29:10.350Z,95065.5
2018-10-01T06:30:12.791Z,95068.7
2018-10-01T06:31:14.947Z,95067.8
2018-10-01T06:32:17.443Z,95068.2
2018-10-01T06:33:19.918Z,95072.5
2018-10-01T06:34:21.849Z,95071.4
2018-10-01T06:35:23.248Z,95071.2
2018-10-01T06:36:25.390Z,95072.2
2018-10-01T06:37:27.596Z,95069.7
2018-10-01T06:38:29.469Z,95077
2018-10-01T06:39:31.645Z,95076.6
2018-10-01T06:40:34.081Z,95078.5
2018-10-01T06:41:36.081Z,95078
2018-10-01T06:42:38.527Z,95079.9
2018-10-01T06:43:40.709Z,95075.5
2018-10-01T06:44:42.846Z,95076.2
2018-10-01T06:45:44.548Z,95082.8
2018-10-01T06:46:46.771Z,95074.5
2018-10-01T06:47:48.664Z,95077.4
2018-10-01T06:48:51.016Z,95077.4
2018-10-01T06:49:52.886Z,95076.4
2018-10-01T06:50:55.303Z,95081.5
2018-10-01T06:51:56.961Z,95083.2
2018-10-01T06:52:58.572Z,95083.3
2018-10-01T06:54:00.722Z,95076.2
2018-10-01T06:55:02.614Z,95081.6
2018-10-01T06:56:05.051Z,95084.6
2018-10-01T06:57:07.484Z,95088.4
2018-10-01T06:58:09.367Z,95088.3
2018-10-01T06:59:11.801Z,95086.6
2018-10-01T07:00:13.959Z,95084.6
2018-10-01T07:01:16.126Z,95085.2
2018-10-01T07:02:18.349Z,95091.2
2018-10-01T07:03:20.781Z,95090
2018-10-01T07:04:23.221Z,95092.2
2018-10-01T07:05:25.958Z,95090.2
2018-10-01T07:06:28.443Z,95096.4
2018-10-01T07:07:30.925Z,95100.9
2018-10-01T07:08:33.362Z,95102.1
2018-10-01T07:09:35.796Z,95106.5
2018-10-01T07:10:38.228Z,95104.4
2018-10-01T07:11:41.645Z,95109.1
2018-10-01T07:12:44.495Z,95109.1
2018-10-01T07:13:46.914Z,95112.8
2018-10-01T07:14:49.357Z,95115.5
2018-10-01T07:15:51.245Z,95113.4
2018-10-01T07:16:53.777Z,95116
2018-10-01T07:17:56.341Z,95115.7
2018-10-01T07:18:58.760Z,95115.5
2018-10-01T07:20:00.916Z,95117.3
2018-10-01T07:21:03.119Z,95120.1
2018-10-01T07:22:05.566Z,95123.5
2018-10-01T07:23:08.943Z,95123.9
2018-10-01T07:24:11.680Z,95123.8
2018-10-01T07:25:13.831Z,95124.3
2018-10-01T07:26:16.012Z,95128
2018-10-01T07:27:18.442Z,95132.5
2018-10-01T07:28:20.864Z,95126.8
2018-10-01T07:29:23.294Z,95130.7
2018-10-01T07:30:25.736Z,95136.6
2018-10-01T07:31:28.168Z,95133.7
2018-10-01T07:32:30.606Z,95134.6
2018-10-01T07:33:33.039Z,95145.3
2018-10-01T07:34:35.468Z,95143.3
2018-10-01T07:35:37.905Z,95142.8
2018-10-01T07:36:40.349Z,95146.6
2018-10-01T07:37:42.239Z,95146
2018-10-01T07:38:44.668Z,95149.3
2018-10-01T07:39:47.105Z,95151.9
2018-10-01T07:40:49.541Z,95150
2018-10-01T07:41:51.956Z,95151.5
2018-10-01T07:42:53.561Z,95151.8
2018-10-01T07:43:56.000Z,95151.9
2018-10-01T07:44:58.554Z,95152.3
2018-10-01T07:46:01.350Z,95152.2
2018-10-01T07:47:03.600Z,95153.8
2018-10-01T07:48:06.071Z,95153.8
2018-10-01T07:49:08.235Z,95155
2018-10-01T07:50:10.658Z,95154.5
2018-10-01T07:51:13.535Z,95155.9
2018-10-01T07:52:15.987Z,95159.8
2018-10-01T07:53:18.580Z,95166.4
2018-10-01T07:54:20.793Z,95162.7
2018-10-01T07:55:22.991Z,95163.7
2018-10-01T07:56:25.415Z,95165.8
2018-10-01T07:57:27.804Z,95166.8
2018-10-01T07:58:30.057Z,95170.6
2018-10-01T07:59:32.864Z,95168
2018-10-01T08:00:35.457Z,95173.2
2018-10-01T08:01:37.883Z,95174.3
2018-10-01T08:02:40.511Z,95177.5
2018-10-01T08:03:43.105Z,95177.6
2018-10-01T08:04:45.579Z,95178.2
2018-10-01T08:05:47.740Z,95182.4
2018-10-01T08:06:50.183Z,95186.2
2018-10-01T08:07:52.622Z,95182.7
2018-10-01T08:08:54.807Z,95183.1
2018-10-01T08:09:57.244Z,95183.9
2018-10-01T08:10:59.677Z,95187.7
2018-10-01T08:12:01.548Z,95186.7
2018-10-01T08:13:03.417Z,95190.2
2018-10-01T08:14:06.189Z,95186.8
2018-10-01T08:15:08.684Z,95187.3
2018-10-01T08:16:10.817Z,95194.2
2018-10-01T08:17:13.252Z,95197.6
2018-10-01T08:18:15.425Z,95196
2018-10-01T08:19:17.581Z,95197
2018-10-01T08:20:19.795Z,95201.4
2018-10-01T08:21:22.259Z,95200.7
2018-10-01T08:22:24.695Z,95199.1
2018-10-01T08:23:27.281Z,95201
2018-10-01T08:24:29.726Z,95201.7
2018-10-01T08:25:32.158Z,95201.2
2018-10-01T08:26:34.932Z,95202.9
2018-10-01T08:27:37.467Z,95206.2
2018-10-01T08:28:39.896Z,95205.9
2018-10-01T08:29:42.633Z,95209.2
2018-10-01T08:30:45.448Z,95206.3
2018-10-01T08:31:47.877Z,95213.8
2018-10-01T08:32:50.325Z,95215
2018-10-01T08:33:52.779Z,95216.6
2018-10-01T08:34:55.001Z,95219.7
2018-10-01T08:35:57.141Z,95218.4
2018-10-01T08:36:59.592Z,95220.2
2018-10-01T08:38:02.432Z,95216.7
2018-10-01T08:39:05.345Z,95217.7
2018-10-01T08:40:07.776Z,95218.7
2018-10-01T08:41:10.146Z,95219.8
2018-10-01T08:42:12.355Z,95221.4
2018-10-01T08:43:14.787Z,95223.3
2018-10-01T08:44:17.134Z,95225
2018-10-01T08:45:19.546Z,95224
2018-10-01T08:46:22.005Z,95227.3
2018-10-01T08:47:24.703Z,95231.1
2018-10-01T08:48:27.059Z,95229.4
2018-10-01T08:49:29.488Z,95232.4
2018-10-01T08:50:32.186Z,95231.5
2018-10-01T08:51:34.712Z,95230.9
2018-10-01T08:52:37.144Z,95231.6
2018-10-01T08:53:39.644Z,95231.1
2018-10-01T08:54:42.075Z,95239.6
2018-10-01T08:55:44.224Z,95236.1
2018-10-01T08:56:46.696Z,95232.8
2018-10-01T08:57:49.124Z,95233.4
2018-10-01T08:58:51.292Z,95238.4
2018-10-01T08:59:53.726Z,95234.1
2018-10-01T09:00:55.886Z,95235
2018-10-01T09:01:58.124Z,95237.8
2018-10-01T09:03:00.608Z,95238.9
2018-10-01T09:04:02.794Z,95233.5
2018-10-01T09:05:05.387Z,95241.1
2018-10-01T09:06:07.958Z,95242.3
2018-10-01T09:07:10.388Z,95242.7
2018-10-01T09:08:13.256Z,95245.5
2018-10-01T09:09:15.576Z,95251.7
2018-10-01T09:10:17.757Z,95246.1
2018-10-01T09:11:20.382Z,95250.2
2018-10-01T09:12:22.268Z,95254.2
2018-10-01T09:13:24.697Z,95252.8
2018-10-01T09:14:27.114Z,95253
2018-10-01T09:15:29.650Z,95251.5
2018-10-01T09:16:32.112Z,95252.8
2018-10-01T09:17:34.847Z,95256.9
2018-10-01T09:18:37.399Z,95256
2018-10-01T09:19:39.864Z,95261.4
2018-10-01T09:20:42.659Z,95259.8
2018-10-01T09:21:45.194Z,95261.6
2018-10-01T09:22:47.647Z,95261.1
2018-10-01T09:23:50.065Z,95261.3
2018-10-01T09:24:52.232Z,95264.3
2018-10-01T09:25:54.656Z,95263.6
2018-10-01T09:26:57.125Z,95259.9
2018-10-01T09:27:59.562Z,95259.8
2018-10-01T09:29:01.541Z,95258.3
2018-10-01T09:30:03.742Z,95261.7
2018-10-01T09:31:06.383Z,95263.8
2018-10-01T09:32:09.368Z,95264.6
2018-10-01T09:33:11.552Z,95268.3
2018-10-01T09:34:13.443Z,95273.3
2018-10-01T09:35:16.471Z,95274.6
2018-10-01T09:36:18.798Z,95277.2
2018-10-01T09:37:21.227Z,95276.4
2018-10-01T09:38:23.823Z,95279.5
2018-10-01T09:39:26.270Z,95279.4
2018-10-01T09:40:28.988Z,95284.1
2018-10-01T09:41:31.477Z,95283.9
2018-10-01T09:42:33.647Z,95283.6
2018-10-01T09:43:36.100Z,95282.9
2018-10-01T09:44:39.180Z,95289
2018-10-01T09:45:41.897Z,95289.8
2018-10-01T09:46:44.319Z,95291.1
2018-10-01T09:47:46.746Z,95293.8
2018-10-01T09:48:48.898Z,95291.4
2018-10-01T09:49:51.337Z,95293.9
2018-10-01T09:50:53.766Z,95295.1
2018-10-01T09:51:56.332Z,95299
2018-10-01T09:52:58.796Z,95301
2018-10-01T09:54:01.227Z,95303.9
2018-10-01T09:55:03.676Z,95299.3
2018-10-01T09:56:05.670Z,95303.8
2018-10-01T09:57:07.520Z,95305
2018-10-01T09:58:09.959Z,95308.2
2018-10-01T09:59:12.546Z,95307.6
2018-10-01T10:00:14.704Z,95308
2018-10-01T10:01:16.584Z,95312
2018-10-01T10:02:19.293Z,95315.6
2018-10-01T10:03:21.725Z,95314.8
2018-10-01T10:04:23.867Z,95314.8
2018-10-01T10:05:26.496Z,95314.9
2018-10-01T10:06:28.937Z,95318.9
2018-10-01T10:07:31.406Z,95318.9
2018-10-01T10:08:34.204Z,95316.1
2018-10-01T10:09:36.750Z,95319.5
2018-10-01T10:10:39.189Z,95321.7
2018-10-01T10:11:41.627Z,95318.9
2018-10-01T10:12:44.060Z,95322.2
2018-10-01T10:13:46.486Z,95319.8
2018-10-01T10:14:48.923Z,95316.6
2018-10-01T10:15:51.063Z,95319.5
2018-10-01T10:16:54.073Z,95319.7
2018-10-01T10:17:57.051Z,95317.5
2018-10-01T10:18:59.555Z,95316.4
2018-10-01T10:20:01.866Z,95317.3
2018-10-01T10:21:04.382Z,95317.7
2018-10-01T10:22:06.420Z,95316.5
2018-10-01T10:23:08.675Z,95321.1
2018-10-01T10:24:11.116Z,95324.4
2018-10-01T10:25:13.543Z,95328.9
2018-10-01T10:26:16.035Z,95329.3
2018-10-01T10:27:18.700Z,95328.2
2018-10-01T10:28:21.118Z,95333.8
2018-10-01T10:29:23.597Z,95332
2018-10-01T10:30:26.020Z,95332
2018-10-01T10:31:28.453Z,95339
2018-10-01T10:32:31.229Z,95339.6
2018-10-01T10:33:33.852Z,95337.5
2018-10-01T10:34:36.662Z,95340
2018-10-01T10:35:38.669Z,95343.6
2018-10-01T10:36:41.101Z,95343.5
2018-10-01T10:37:43.533Z,95343.4
2018-10-01T10:38:45.703Z,95346.9
2018-10-01T10:39:48.137Z,95348.7
2018-10-01T10:40:50.049Z,95349.3
2018-10-01T10:41:53.028Z,95348.2
2018-10-01T10:42:55.405Z,95349
2018-10-01T10:43:57.663Z,95351.7
2018-10-01T10:44:59.807Z,95349.9
2018-10-01T10:46:02.233Z,95350.2
2018-10-01T10:47:04.118Z,95360.4
2018-10-01T10:48:06.780Z,95357.1
2018-10-01T10:49:08.987Z,95355.8
2018-10-01T10:50:11.395Z,95354.8
2018-10-01T10:51:13.756Z,95353.5
2018-10-01T10:52:15.628Z,95354.8
2018-10-01T10:53:18.090Z,95359.9
2018-10-01T10:54:20.522Z,95364.3
2018-10-01T10:55:22.967Z,95362.2
2018-10-01T10:56:24.925Z,95362.6
2018-10-01T10:57:27.434Z,95363.3
2018-10-01T10:58:29.873Z,95366.6
2018-10-01T10:59:32.313Z,95366.4
2018-10-01T11:00:34.780Z,95365.8
2018-10-01T11:01:37.209Z,95362
2018-10-01T11:02:39.784Z,95365.4
2018-10-01T11:03:42.346Z,95367.3
2018-10-01T11:04:44.776Z,95363
2018-10-01T11:05:46.659Z,95361.6
2018-10-01T11:06:49.094Z,95368.3
2018-10-01T11:07:51.520Z,95365.3
2018-10-01T11:08:54.005Z,95364.4
2018-10-01T11:09:56.452Z,95362.5
2018-10-01T11:10:58.352Z,95365.7
2018-10-01T11:12:00.819Z,95362.5
2018-10-01T11:13:02.727Z,95359
2018-10-01T11:14:05.893Z,95357.9
2018-10-01T11:15:09.859Z,95361.9
2018-10-01T11:16:12.752Z,95364.3
2018-10-01T11:17:15.020Z,95360.3
2018-10-01T11:18:17.261Z,95358
2018-10-01T11:19:21.162Z,95358.5
2018-10-01T11:20:25.243Z,95358.2
2018-10-01T11:21:28.482Z,95352.1
2018-10-01T11:22:30.879Z,95353.4
2018-10-01T11:23:33.424Z,95354
2018-10-01T11:24:35.579Z,95354.9
2018-10-01T11:25:38.273Z,95353
2018-10-01T11:26:41.201Z,95355.8
2018-10-01T11:27:44.080Z,95352.5
2018-10-01T11:28:47.073Z,95354
2018-10-01T11:29:49.074Z,95359.4
2018-10-01T11:30:51.524Z,95357.1
2018-10-01T11:31:54.340Z,95356.3
2018-10-01T11:32:57.300Z,95357.4
2018-10-01T11:33:59.767Z,95360.6
2018-10-01T11:35:02.854Z,95358.5
2018-10-01T11:36:05.596Z,95359.1
2018-10-01T11:37:08.075Z,95362.7
2018-10-01T11:38:10.520Z,95353.8
2018-10-01T11:39:13.489Z,95357.1
2018-10-01T11:40:15.921Z,95361
2018-10-01T11:41:17.518Z,95355.7
2018-10-01T11:42:19.673Z,95357.2
2018-10-01T11:43:21.868Z,95358.9
2018-10-01T11:44:24.321Z,95353.2
2018-10-01T11:45:26.881Z,95358.2
2018-10-01T11:46:29.383Z,95356.4
2018-10-01T11:47:31.613Z,95360.4
2018-10-01T11:48:34.040Z,95362.5
2018-10-01T11:49:36.472Z,95357.4
2018-10-01T11:50:38.957Z,95357.8
2018-10-01T11:51:41.097Z,95356.1
2018-10-01T11:52:43.310Z,95355
2018-10-01T11:53:45.445Z,95358.9
2018-10-01T11:54:47.597Z,95357.9
2018-10-01T11:55:49.747Z,95356.3
2018-10-01T11:56:52.175Z,95358.4
2018-10-01T11:57:54.609Z,95360.4
2018-10-01T11:58:56.788Z,95360.5
2018-10-01T11:59:58.955Z,95360.7
2018-10-01T12:01:01.403Z,95362
2018-10-01T12:02:03.827Z,95360.7
2018-10-01T12:03:06.507Z,95367.6
2018-10-01T12:04:09.125Z,95363.8
2018-10-01T12:05:11.399Z,95367.6
2018-10-01T12:06:13.824Z,95362.9
2018-10-01T12:07:16.259Z,95365.3
2018-10-01T12:08:18.462Z,95371.2
2018-10-01T12:09:21.080Z,95365.7
2018-10-01T12:10:23.436Z,95371
2018-10-01T12:11:25.985Z,95376.1
2018-10-01T12:12:28.128Z,95369.9
2018-10-01T12:13:30.578Z,95374.5
2018-10-01T12:14:33.061Z,95378.9
2018-10-01T12:15:35.498Z,95377.6
2018-10-01T12:16:38.029Z,95380.4
2018-10-01T12:17:40.479Z,95379.3
2018-10-01T12:18:42.914Z,95379.1
2018-10-01T12:19:45.368Z,95380.2
2018-10-01T12:20:47.803Z,95380.5
2018-10-01T12:21:50.251Z,95380.5
2018-10-01T12:22:52.700Z,95382.2
2018-10-01T12:23:55.132Z,95387.9
2018-10-01T12:24:57.559Z,95383
2018-10-01T12:25:59.987Z,95385.4
2018-10-01T12:27:02.261Z,95378.1
2018-10-01T12:28:04.487Z,95379.2
2018-10-01T12:29:06.847Z,95382
2018-10-01T12:30:09.352Z,95379.6
2018-10-01T12:31:11.784Z,95381.3
2018-10-01T12:32:13.921Z,95382.1
2018-10-01T12:33:16.590Z,95373.6
2018-10-01T12:34:19.197Z,95382.5
2018-10-01T12:35:21.675Z,95379.2
2018-10-01T12:36:24.102Z,95379.7
2018-10-01T12:37:26.265Z,95384
2018-10-01T12:38:28.695Z,95375.1
2018-10-01T12:39:31.028Z,95379.9